Time;durP1;ratioP1;P1;durP2;ratioP2;P2;SDS_P1;SDS_P2;PMS_P1;PMS_P2;Temp;Humidity;BMP_temperature;BMP_pressure;BME280_temperature;BME280_humidity;BME280_pressure;Samples;Min_cycle;Max_cycle;Signal;HPM_P1;HPM_P2
2022/12/10 00:03:01;;;;;;;16.37;14.60;;;;;;;4.13;54.31;96765.47;8378698;28;20235;-70
2022/12/10 00:07:04;;;;;;;19.20;15.50;;;;;;;4.02;54.77;96774.41;8378620;28;20456;-70
2022/12/10 00:11:12;;;;;;;17.13;15.07;;;;;;;4.07;54.31;96761.41;8378041;28;20275;-71
2022/12/10 00:15:16;;;;;;;18.83;16.83;;;;;;;4.64;53.22;96749.78;8377212;28;20463;-71
2022/12/10 00:19:18;;;;;;;18.37;14.53;;;;;;;4.22;54.42;96755.72;8378132;28;20297;-71
2022/12/10 00:23:21;;;;;;;17.40;14.33;;;;;;;4.22;54.18;96755.72;8378153;28;20320;-71
2022/12/10 00:27:25;;;;;;;18.13;15.17;;;;;;;4.27;54.38;96756.38;8383964;28;20236;-71
2022/12/10 00:31:31;;;;;;;18.30;14.60;;;;;;;4.31;53.91;96752.78;8377990;28;20237;-71
2022/12/10 00:35:36;;;;;;;19.83;15.23;;;;;;;4.21;54.43;96750.66;8378548;28;20310;-71
2022/12/10 00:39:39;;;;;;;17.30;15.00;;;;;;;4.11;54.23;96745.88;8378392;28;20248;-71
2022/12/10 00:43:42;;;;;;;19.93;16.17;;;;;;;4.14;54.49;96750.06;8377908;28;20480;-71
2022/12/10 00:47:47;;;;;;;18.10;15.93;;;;;;;4.20;54.41;96749.81;8377778;28;20453;-70
2022/12/10 00:51:49;;;;;;;16.10;14.23;;;;;;;4.22;54.34;96758.28;8377955;28;20588;-72
2022/12/10 00:55:52;;;;;;;18.60;16.13;;;;;;;4.14;54.43;96772.28;8377448;28;20232;-71
2022/12/10 00:59:55;;;;;;;18.30;15.50;;;;;;;4.16;54.91;96767.94;8377661;28;20378;-70
2022/12/10 01:04:02;;;;;;;19.07;15.50;;;;;;;4.25;54.42;96770.97;8377530;28;20296;-71
2022/12/10 01:08:05;;;;;;;18.37;15.80;;;;;;;4.26;54.19;96769.25;8377472;28;20256;-71
2022/12/10 01:12:08;;;;;;;19.07;15.27;;;;;;;4.20;54.47;96765.19;8377625;28;20329;-71
2022/12/10 01:16:12;;;;;;;17.53;14.27;;;;;;;4.17;54.23;96756.78;8377396;28;20294;-71
2022/12/10 01:20:17;;;;;;;19.43;14.40;;;;;;;4.13;54.50;96768.88;8377599;28;20232;-71
2022/12/10 01:24:22;;;;;;;17.87;14.73;;;;;;;4.20;53.89;96769.50;8377526;28;20228;-70
2022/12/10 01:28:24;;;;;;;17.80;15.17;;;;;;;3.90;54.48;96775.72;8377493;28;20229;-70
2022/12/10 01:32:27;;;;;;;18.73;15.30;;;;;;;4.02;54.48;96787.22;8379231;28;20248;-71
2022/12/10 01:36:33;;;;;;;18.80;15.03;;;;;;;3.86;53.81;96783.53;8383351;28;20245;-71
2022/12/10 01:40:38;;;;;;;19.97;15.10;;;;;;;3.91;54.08;96799.59;8383198;28;20225;-71
2022/12/10 01:45:04;;;;;;;16.90;14.77;;;;;;;3.96;53.98;96796.84;8383603;28;20229;-71
2022/12/10 01:49:09;;;;;;;17.00;14.37;;;;;;;3.89;54.15;96807.31;8382950;28;20278;-71
2022/12/10 01:53:13;;;;;;;18.60;14.63;;;;;;;3.89;53.57;96797.06;8382792;28;20260;-70
2022/12/10 01:57:19;;;;;;;17.93;15.17;;;;;;;3.81;53.82;96800.78;8383214;28;20229;-70
2022/12/10 02:01:28;;;;;;;18.00;14.70;;;;;;;3.57;53.75;96751.31;8382881;28;20229;-71
2022/12/10 02:05:37;;;;;;;18.97;15.50;;;;;;;3.68;53.97;96772.25;8382235;28;20228;-71
2022/12/10 02:09:44;;;;;;;19.77;15.47;;;;;;;3.83;53.97;96802.44;8382247;28;20229;-71
2022/12/10 02:13:53;;;;;;;16.40;14.00;;;;;;;3.71;54.18;96811.38;8382286;28;20236;-71
2022/12/10 02:17:58;;;;;;;19.25;15.45;;;;;;;3.82;54.11;96813.53;8381647;28;20451;-70
2022/12/10 02:22:02;;;;;;;17.93;15.13;;;;;;;3.82;54.23;96817.84;8381661;28;20232;-70
2022/12/10 02:26:12;;;;;;;20.03;15.20;;;;;;;3.77;54.46;96805.22;8381569;28;20233;-70
2022/12/10 02:30:17;;;;;;;19.80;15.10;;;;;;;3.70;54.41;96801.19;8381577;28;20229;-70
2022/12/10 02:34:20;;;;;;;17.60;14.60;;;;;;;3.81;54.58;96804.22;8381595;28;20224;-70
2022/12/10 02:38:26;;;;;;;18.03;14.13;;;;;;;3.91;54.00;96804.72;8381305;28;20229;-70
2022/12/10 02:42:30;;;;;;;18.33;14.73;;;;;;;3.89;54.19;96801.38;8381070;28;20247;-70
2022/12/10 02:46:36;;;;;;;16.83;14.73;;;;;;;3.66;54.10;96768.91;8381105;28;20221;-70
2022/12/10 02:50:39;;;;;;;18.13;15.40;;;;;;;3.81;54.57;96801.66;8380866;28;20232;-70
2022/12/10 02:54:43;;;;;;;17.13;14.50;;;;;;;3.86;54.60;96806.59;8380827;28;20225;-70
2022/12/10 02:58:53;;;;;;;17.33;14.77;;;;;;;3.84;54.52;96813.50;8380697;28;20447;-71
2022/12/10 03:03:15;;;;;;;17.87;15.13;;;;;;;3.86;53.92;96801.47;8380201;28;20271;-70
2022/12/10 03:07:20;;;;;;;18.13;15.27;;;;;;;3.76;54.63;96795.84;8380435;28;20235;-70
2022/12/10 03:11:24;;;;;;;19.57;15.87;;;;;;;3.76;54.18;96789.91;8380143;28;20316;-70
2022/12/10 03:15:28;;;;;;;18.73;15.03;;;;;;;3.87;54.83;96808.28;8379791;28;20450;-70
2022/12/10 03:19:37;;;;;;;17.83;15.17;;;;;;;3.90;54.47;96790.22;8380154;28;20290;-70
2022/12/10 03:23:42;;;;;;;21.13;15.20;;;;;;;4.03;53.75;96804.25;8379923;28;20232;-71
2022/12/10 03:27:47;;;;;;;19.03;16.40;;;;;;;3.75;54.62;96796.75;8379552;28;20257;-70
2022/12/10 03:31:50;;;;;;;19.70;15.73;;;;;;;3.77;55.17;96791.56;8379532;28;20233;-70
2022/12/10 03:35:54;;;;;;;16.77;14.60;;;;;;;3.86;54.69;96788.66;8378881;28;20235;-70
2022/12/10 03:39:57;;;;;;;18.33;15.03;;;;;;;3.92;54.36;96781.59;8379473;28;20554;-70
2022/12/10 03:44:01;;;;;;;17.53;15.03;;;;;;;3.94;54.70;96780.69;8379487;28;20324;-70
2022/12/10 03:48:04;;;;;;;18.00;14.90;;;;;;;3.78;54.80;96783.00;8379304;28;20232;-70
2022/12/10 03:52:08;;;;;;;19.67;15.60;;;;;;;3.94;54.44;96784.13;8379023;28;20252;-70
2022/12/10 03:56:11;;;;;;;19.33;16.00;;;;;;;3.97;54.30;96783.97;8378731;28;20252;-71
2022/12/10 04:00:14;;;;;;;17.30;15.43;;;;;;;3.89;54.79;96773.19;8378755;28;20294;-70
2022/12/10 04:04:17;;;;;;;17.37;14.87;;;;;;;3.76;55.00;96767.69;8378948;28;20247;-70
2022/12/10 04:08:21;;;;;;;20.40;16.40;;;;;;;3.52;55.16;96772.78;8378752;28;20233;-71
2022/12/10 04:12:24;;;;;;;17.30;15.27;;;;;;;3.90;55.02;96782.53;8378761;28;20251;-71
2022/12/10 04:16:26;;;;;;;20.90;16.33;;;;;;;3.34;55.24;96765.75;8378599;28;20224;-70
2022/12/10 04:29:11;;;;;;;20.13;16.87;;;;;;;3.66;55.45;96776.59;8377970;28;20228;-70
2022/12/10 04:33:13;;;;;;;19.37;16.27;;;;;;;3.61;55.45;96784.41;8378081;28;20221;-70
2022/12/10 04:37:17;;;;;;;20.63;16.10;;;;;;;3.70;55.39;96788.38;8379042;28;20224;-70
2022/12/10 04:41:21;;;;;;;18.60;15.30;;;;;;;3.89;54.77;96786.00;8379010;28;20225;-70
2022/12/10 04:45:24;;;;;;;21.07;16.30;;;;;;;3.75;55.19;96777.97;8378649;28;20511;-70
2022/12/10 04:49:27;;;;;;;19.00;16.13;;;;;;;3.83;54.83;96781.94;8378755;28;20236;-70
2022/12/10 04:53:29;;;;;;;17.90;15.13;;;;;;;3.84;54.61;96780.19;8378390;28;20286;-70
2022/12/10 04:57:34;;;;;;;18.67;15.33;;;;;;;3.87;54.66;96775.81;8378289;28;20266;-70
2022/12/10 05:01:37;;;;;;;20.10;15.47;;;;;;;3.77;54.77;96776.19;8378197;28;20220;-71
2022/12/10 05:05:39;;;;;;;18.67;15.37;;;;;;;3.77;54.37;96781.31;8378117;28;20486;-70
2022/12/10 05:09:42;;;;;;;18.50;15.07;;;;;;;3.76;54.22;96783.03;8383523;28;20541;-70
2022/12/10 05:13:47;;;;;;;19.53;16.60;;;;;;;3.60;54.35;96774.22;8383870;28;20238;-70
2022/12/10 05:17:50;;;;;;;18.87;15.73;;;;;;;3.64;54.28;96781.75;8383811;28;20314;-71
2022/12/10 05:26:15;;;;;;;18.80;15.20;;;;;;;3.79;54.15;96794.88;8383389;28;20236;-71
2022/12/10 05:30:19;;;;;;;20.77;16.37;;;;;;;3.60;54.36;96794.72;8383635;28;20233;-71
2022/12/10 05:34:22;;;;;;;19.43;15.93;;;;;;;3.50;54.07;96786.50;8384697;28;20228;-71
2022/12/10 05:38:24;;;;;;;21.53;17.17;;;;;;;3.47;54.02;96792.59;8383886;28;20228;-71
2022/12/10 05:42:27;;;;;;;20.83;16.43;;;;;;;3.50;54.10;96797.63;8383483;28;20231;-71
2022/12/10 05:46:33;;;;;;;19.17;15.97;;;;;;;3.61;53.80;96804.91;8383615;28;20248;-70
2022/12/10 05:50:36;;;;;;;20.93;17.47;;;;;;;3.50;54.00;96796.75;8383197;28;20300;-71
2022/12/10 05:54:38;;;;;;;19.43;16.27;;;;;;;3.67;53.74;96814.09;8383067;28;20228;-71
2022/12/10 05:58:43;;;;;;;23.90;18.23;;;;;;;3.45;53.46;96817.41;8382914;28;20271;-71
2022/12/10 06:02:47;;;;;;;22.13;17.90;;;;;;;3.26;53.52;96814.63;8382817;28;20233;-71
2022/12/10 06:06:50;;;;;;;22.63;17.70;;;;;;;3.35;53.56;96828.84;8382030;28;20291;-71
2022/12/10 06:10:53;;;;;;;22.70;17.37;;;;;;;3.41;53.14;96833.75;8381934;28;20229;-71
2022/12/10 06:14:56;;;;;;;29.20;20.23;;;;;;;3.24;53.06;96829.19;8381475;28;20328;-71
2022/12/10 06:19:01;;;;;;;22.80;17.87;;;;;;;3.24;53.54;96833.50;8381226;28;20233;-71
2022/12/10 06:23:04;;;;;;;21.50;17.50;;;;;;;3.37;53.29;96836.47;8379007;28;20236;-71
2022/12/10 06:27:07;;;;;;;22.90;18.07;;;;;;;3.31;53.20;96838.34;8382226;28;20544;-71
2022/12/10 06:31:10;;;;;;;20.90;17.30;;;;;;;3.23;53.04;96829.25;8381575;28;20249;-71
2022/12/10 06:35:14;;;;;;;23.20;17.03;;;;;;;3.16;53.24;96831.19;8381070;28;20596;-72
2022/12/10 06:39:16;;;;;;;23.03;17.53;;;;;;;3.21;53.00;96831.03;8381832;28;20249;-71
2022/12/10 06:43:19;;;;;;;20.57;16.80;;;;;;;3.21;53.00;96848.94;8381328;28;20233;-71
2022/12/10 06:47:22;;;;;;;22.40;18.33;;;;;;;3.15;52.76;96849.16;8381489;28;20225;-71
2022/12/10 06:51:27;;;;;;;23.43;18.47;;;;;;;3.12;52.93;96867.97;8381197;28;20536;-71
2022/12/10 06:55:30;;;;;;;24.70;18.70;;;;;;;3.08;53.21;96858.72;8381223;28;20224;-71
2022/12/10 06:59:33;;;;;;;20.83;17.50;;;;;;;3.13;52.80;96867.91;8380842;28;20410;-71
2022/12/10 07:03:35;;;;;;;21.17;17.70;;;;;;;3.12;52.73;96873.09;8380854;28;20220;-71
2022/12/10 07:07:40;;;;;;;22.53;17.17;;;;;;;3.21;53.26;96874.53;8380005;28;20467;-71
2022/12/10 07:11:43;;;;;;;25.40;19.57;;;;;;;3.10;52.99;96856.94;8380523;28;20232;-71
2022/12/10 07:15:45;;;;;;;22.03;18.47;;;;;;;3.20;52.80;96871.13;8380950;28;20235;-70
2022/12/10 07:19:48;;;;;;;25.10;18.20;;;;;;;3.13;53.01;96867.91;8380925;28;20229;-71
2022/12/10 07:23:53;;;;;;;22.83;17.90;;;;;;;3.17;53.06;96872.94;8381026;28;20248;-71
2022/12/10 07:27:56;;;;;;;24.87;19.37;;;;;;;2.99;53.46;96875.22;8379940;28;20274;-70
2022/12/10 07:31:59;;;;;;;23.37;18.60;;;;;;;3.20;52.50;96872.84;8380144;28;20239;-70
2022/12/10 07:36:04;;;;;;;24.27;18.70;;;;;;;3.04;53.08;96868.22;8380917;28;20252;-72
2022/12/10 07:40:10;;;;;;;24.23;19.47;;;;;;;3.07;52.20;96872.41;8380435;28;20331;-71
2022/12/10 07:44:13;;;;;;;24.63;18.87;;;;;;;2.96;52.96;96854.00;8380920;28;20464;-70
2022/12/10 07:48:16;;;;;;;24.83;19.53;;;;;;;3.00;52.44;96868.38;8380261;28;20220;-71
2022/12/10 07:52:19;;;;;;;23.27;18.00;;;;;;;3.10;52.57;96880.84;8380050;28;20229;-71
2022/12/10 07:56:24;;;;;;;22.87;18.50;;;;;;;3.19;52.18;96882.25;8379843;28;20332;-71
2022/12/10 08:00:27;;;;;;;21.77;17.90;;;;;;;3.39;52.09;96891.84;8379497;28;20229;-71
2022/12/10 08:04:30;;;;;;;22.83;18.53;;;;;;;3.40;51.76;96902.91;8379606;28;20531;-71
2022/12/10 08:08:37;;;;;;;25.20;19.30;;;;;;;3.38;52.01;96897.00;8379378;28;20224;-71
2022/12/10 08:12:41;;;;;;;25.30;20.67;;;;;;;3.64;51.82;96903.84;8379191;28;20237;-71
2022/12/10 08:16:44;;;;;;;26.43;21.07;;;;;;;3.80;52.03;96909.25;8379513;28;20236;-71
2022/12/10 08:20:47;;;;;;;37.70;26.20;;;;;;;3.63;52.68;96908.09;8379084;28;20232;-71
2022/12/10 08:24:49;;;;;;;51.73;32.27;;;;;;;3.75;52.25;96906.88;8379067;28;20498;-71
2022/12/10 08:28:54;;;;;;;55.00;32.93;;;;;;;3.81;52.50;96906.66;8378727;28;20316;-70
2022/12/10 08:32:57;;;;;;;43.80;29.80;;;;;;;3.85;52.81;96913.34;8378885;28;20233;-70
2022/12/10 08:37:00;;;;;;;40.60;27.80;;;;;;;4.02;52.81;96912.75;8378918;28;20260;-71
2022/12/10 08:41:07;;;;;;;36.20;25.30;;;;;;;4.07;53.04;96904.91;8379607;28;20232;-72
2022/12/10 08:45:11;;;;;;;33.33;23.70;;;;;;;4.15;53.03;96912.31;8385915;28;20241;-71
2022/12/10 08:49:14;;;;;;;37.20;26.03;;;;;;;4.00;53.14;96916.25;8385680;28;20225;-72
2022/12/10 08:53:17;;;;;;;31.13;22.67;;;;;;;4.25;52.96;96906.81;8385187;28;20236;-72
2022/12/10 08:57:19;;;;;;;34.60;25.07;;;;;;;4.32;53.18;96904.84;8385320;28;20271;-71
2022/12/10 09:01:24;;;;;;;30.13;23.53;;;;;;;4.33;53.70;96914.22;8385329;28;20252;-71
2022/12/10 09:05:26;;;;;;;30.60;22.90;;;;;;;4.42;52.97;96895.94;8385198;28;20564;-72
2022/12/10 09:09:29;;;;;;;29.23;22.17;;;;;;;4.53;53.16;96892.97;8385458;28;20528;-70
2022/12/10 09:13:32;;;;;;;27.20;22.43;;;;;;;4.61;53.39;96893.53;8385402;28;20570;-71
2022/12/10 09:17:38;;;;;;;29.43;23.43;;;;;;;4.72;53.35;96893.13;8385369;28;20244;-72
2022/12/10 09:21:40;;;;;;;28.77;21.27;;;;;;;4.66;53.72;96901.91;8385775;28;20248;-71
2022/12/10 09:25:46;;;;;;;30.20;23.77;;;;;;;4.69;53.82;96912.03;8385579;28;20240;-72
2022/12/10 09:29:49;;;;;;;29.00;22.77;;;;;;;4.87;53.68;96902.81;8385730;28;20229;-72
2022/12/10 09:33:54;;;;;;;28.50;23.27;;;;;;;4.79;54.00;96892.00;8385171;28;20294;-73
2022/12/10 09:37:57;;;;;;;29.30;23.40;;;;;;;5.03;53.86;96897.91;8384540;28;20236;-71
2022/12/10 09:42:12;;;;;;;32.40;25.53;;;;;;;5.14;53.44;96896.66;8384658;28;20233;-71
2022/12/10 09:46:22;;;;;;;38.63;27.40;;;;;;;5.19;53.79;96900.69;8384731;28;20346;-72
2022/12/10 09:50:30;;;;;;;34.30;26.03;;;;;;;5.44;53.06;96907.41;8383738;28;20381;-72
2022/12/10 09:54:36;;;;;;;34.70;25.57;;;;;;;5.41;53.17;96899.84;8383028;28;20556;-72
2022/12/10 09:58:39;;;;;;;35.33;25.03;;;;;;;5.39;53.89;96904.22;8383424;28;20291;-70
2022/12/10 10:02:42;;;;;;;30.57;23.40;;;;;;;5.38;53.95;96882.00;8383109;28;20225;-70
2022/12/10 10:06:46;;;;;;;37.13;25.03;;;;;;;5.75;53.61;96878.75;8383162;28;20233;-71
2022/12/10 10:10:49;;;;;;;53.13;34.77;;;;;;;6.03;53.17;96898.13;8382463;28;20240;-70
2022/12/10 10:14:53;;;;;;;27.90;21.53;;;;;;;6.00;53.87;96901.69;8382901;28;20279;-70
2022/12/10 10:18:59;;;;;;;26.67;21.27;;;;;;;5.99;53.50;96906.88;8382819;28;20256;-71
2022/12/10 10:23:03;;;;;;;26.27;20.67;;;;;;;5.87;54.35;96898.75;8382881;28;20235;-70
2022/12/10 10:27:14;;;;;;;26.23;21.13;;;;;;;5.77;53.83;96897.50;8382635;28;20280;-70
2022/12/10 10:31:20;;;;;;;27.43;22.00;;;;;;;5.74;54.60;96918.16;8382487;28;20423;-71
2022/12/10 10:35:26;;;;;;;31.10;22.77;;;;;;;5.55;54.79;96915.53;8382473;28;20504;-71
2022/12/10 10:39:32;;;;;;;29.47;23.50;;;;;;;5.49;54.68;96926.88;8382489;28;20232;-72
2022/12/10 10:43:41;;;;;;;29.20;23.23;;;;;;;5.50;54.95;96927.69;8382227;28;20221;-71
2022/12/10 10:47:43;;;;;;;27.93;21.77;;;;;;;5.54;54.86;96923.28;8382062;28;20240;-72
2022/12/10 10:51:47;;;;;;;26.57;21.47;;;;;;;5.64;55.24;96912.56;8381701;28;20553;-72
2022/12/10 10:55:52;;;;;;;28.50;22.23;;;;;;;5.86;54.40;96911.66;8381467;28;20560;-73
2022/12/10 10:59:56;;;;;;;26.43;21.53;;;;;;;5.79;54.61;96907.72;8381396;28;20228;-72
2022/12/10 11:04:00;;;;;;;29.93;22.13;;;;;;;5.79;54.80;96895.69;8380894;28;20229;-72
2022/12/10 11:08:05;;;;;;;25.30;20.93;;;;;;;5.56;55.18;96883.81;8380905;28;20232;-72
2022/12/10 11:12:29;;;;;;;28.07;21.33;;;;;;;5.69;55.10;96909.81;8380893;28;20235;-73
2022/12/10 11:16:31;;;;;;;26.50;20.63;;;;;;;5.80;54.97;96905.06;8380867;28;20239;-72
2022/12/10 11:20:35;;;;;;;27.80;22.87;;;;;;;5.77;55.16;96900.06;8381224;28;20228;-72
2022/12/10 11:24:44;;;;;;;22.87;16.90;;;;;;;6.16;70.50;96907.00;8380999;28;20236;-74
2022/12/10 11:28:59;;;;;;;23.17;17.77;;;;;;;8.96;69.58;96915.72;8380682;28;20456;-74
2022/12/10 11:33:13;;;;;;;26.33;18.20;;;;;;;10.20;55.60;96907.78;8380379;28;20517;-74
2022/12/10 11:37:21;;;;;;;21.50;17.17;;;;;;;10.59;49.30;96910.69;8380521;28;20235;-74
2022/12/10 11:41:30;;;;;;;26.48;23.77;;;;;;;9.17;45.61;96900.78;8379838;28;20452;-72
2022/12/10 11:45:46;;;;;;;24.47;21.23;;;;;;;7.39;49.67;96903.94;8380299;28;20241;-71
2022/12/10 11:49:58;;;;;;;24.13;21.23;;;;;;;7.24;50.98;96905.50;8380199;28;20290;-71
2022/12/10 11:54:08;;;;;;;26.33;21.90;;;;;;;6.81;52.08;96909.25;8379350;28;20233;-71
2022/12/10 11:58:23;;;;;;;26.47;21.40;;;;;;;6.67;52.73;96912.47;8379233;28;20494;-71
2022/12/10 12:02:45;;;;;;;26.43;21.47;;;;;;;6.49;52.95;96903.81;8379362;28;20239;-71
2022/12/10 12:07:18;;;;;;;35.53;27.80;;;;;;;6.34;53.68;96905.38;8380078;28;20232;-71
2022/12/10 12:11:33;;;;;;;29.63;25.27;;;;;;;6.25;53.95;96913.47;8379261;28;20232;-72
2022/12/10 12:15:38;;;;;;;33.30;25.73;;;;;;;6.04;55.03;96917.81;8378837;28;20228;-71
2022/12/10 12:19:46;;;;;;;33.73;25.60;;;;;;;6.05;54.33;96919.47;8379128;28;20288;-72
2022/12/10 12:23:52;;;;;;;28.10;22.73;;;;;;;6.15;54.78;96897.63;8378958;28;20237;-73
2022/12/10 12:28:06;;;;;;;27.10;22.60;;;;;;;6.11;55.20;96900.38;8379492;28;20285;-73
2022/12/10 12:32:13;;;;;;;27.07;22.53;;;;;;;5.89;55.81;96903.84;8378823;28;20246;-73
2022/12/10 12:36:19;;;;;;;29.83;24.00;;;;;;;6.06;56.14;96913.44;8378663;28;20227;-71
2022/12/10 12:40:29;;;;;;;29.77;24.10;;;;;;;5.96;56.06;96912.16;8379033;28;20301;-71
2022/12/10 12:44:37;;;;;;;28.30;23.23;;;;;;;5.82;56.20;96918.66;8378531;28;20283;-71
2022/12/10 12:48:45;;;;;;;30.63;23.10;;;;;;;5.62;55.80;96875.03;8378640;28;20229;-72
2022/12/10 12:52:52;;;;;;;30.67;25.97;;;;;;;5.76;56.03;96884.72;8378577;28;20236;-71
2022/12/10 12:57:00;;;;;;;29.03;23.67;;;;;;;5.96;56.09;96920.72;8378476;28;20239;-71
2022/12/10 13:01:08;;;;;;;34.80;27.97;;;;;;;5.76;56.79;96916.38;8378794;28;20237;-72
2022/12/10 13:05:15;;;;;;;27.03;22.47;;;;;;;5.96;56.08;96907.00;8378953;28;20229;-70
2022/12/10 13:09:26;;;;;;;28.27;22.00;;;;;;;5.85;56.35;96902.31;8378470;28;20270;-71
2022/12/10 13:13:32;;;;;;;27.80;22.77;;;;;;;5.90;56.47;96909.81;8379115;28;20228;-71
2022/12/10 13:17:36;;;;;;;25.83;21.63;;;;;;;5.83;57.07;96911.81;8378564;28;20248;-70
2022/12/10 13:21:57;;;;;;;24.87;20.27;;;;;;;6.04;55.71;96920.38;8379047;28;20243;-72
2022/12/10 13:26:03;;;;;;;29.20;22.80;;;;;;;5.85;55.63;96905.72;8378165;28;20454;-72
2022/12/10 13:30:28;;;;;;;25.57;21.67;;;;;;;6.15;55.69;96922.47;8383183;28;20237;-72
2022/12/10 13:34:33;;;;;;;27.00;21.40;;;;;;;6.22;55.69;96923.88;8385368;28;20231;-71
2022/12/10 13:38:41;;;;;;;26.97;20.30;;;;;;;6.29;55.36;96939.91;8384374;28;20525;-72
2022/12/10 13:47:26;;;;;;;26.30;21.93;;;;;;;6.12;55.57;96968.91;8383393;28;20224;-73
2022/12/10 13:51:40;;;;;;;26.43;21.03;;;;;;;6.14;55.80;96973.06;8383794;28;20221;-73
2022/12/10 13:55:47;;;;;;;26.70;21.50;;;;;;;6.12;55.77;96969.72;8383734;28;20229;-73
2022/12/10 13:59:56;;;;;;;28.43;22.27;;;;;;;6.12;55.67;96968.91;8383189;28;20415;-72
2022/12/10 14:04:17;;;;;;;25.83;20.90;;;;;;;6.30;56.08;96962.94;8383021;28;20298;-71
2022/12/10 14:08:25;;;;;;;27.70;22.80;;;;;;;6.10;56.04;96962.97;8383443;28;20232;-71
2022/12/10 14:12:31;;;;;;;26.90;21.70;;;;;;;6.31;55.81;96969.78;8382952;28;20227;-71
2022/12/10 14:16:36;;;;;;;23.70;19.80;;;;;;;6.19;55.92;96953.16;8382640;28;20228;-73
2022/12/10 14:20:45;;;;;;;32.83;29.33;;;;;;;6.68;54.41;96975.03;8380259;28;20402;-71
2022/12/10 14:24:50;;;;;;;29.00;23.70;;;;;;;6.28;55.79;96987.06;8382062;28;20237;-72
2022/12/10 14:28:57;;;;;;;25.97;21.13;;;;;;;6.10;56.16;96994.66;8382401;28;20221;-71
2022/12/10 14:33:01;;;;;;;23.63;19.23;;;;;;;6.06;55.78;96996.53;8382265;28;20232;-73
2022/12/10 14:37:05;;;;;;;22.70;18.87;;;;;;;5.90;56.36;97012.59;8382225;28;20232;-73
2022/12/10 14:41:08;;;;;;;20.33;16.80;;;;;;;5.86;56.06;97010.16;8381526;28;20233;-73
2022/12/10 14:45:14;;;;;;;20.83;16.73;;;;;;;5.93;56.13;97018.44;8381310;28;20233;-73
2022/12/10 14:49:21;;;;;;;20.47;17.33;;;;;;;5.85;56.34;97016.19;8381751;28;20220;-71
2022/12/10 14:53:25;;;;;;;18.00;15.63;;;;;;;5.71;56.62;97004.78;8381778;28;20248;-72
2022/12/10 14:57:33;;;;;;;20.37;15.87;;;;;;;5.84;56.12;97021.38;8381162;28;20469;-73
2022/12/10 15:01:38;;;;;;;15.93;13.83;;;;;;;5.65;56.50;97011.88;8380728;28;20485;-72
2022/12/10 15:05:42;;;;;;;15.93;14.33;;;;;;;6.07;54.76;97021.34;8379769;28;20417;-72
2022/12/10 15:09:46;;;;;;;14.80;13.38;;;;;;;6.15;54.17;97028.72;8379661;28;20405;-71
2022/12/10 15:13:51;;;;;;;12.97;11.50;;;;;;;5.84;55.39;97044.53;8380089;28;20533;-72
2022/12/10 15:18:00;;;;;;;16.00;12.63;;;;;;;5.76;55.19;97049.97;8380090;28;20350;-71
2022/12/10 15:22:19;;;;;;;28.23;21.07;;;;;;;5.76;55.58;97056.84;8380176;28;20235;-72
2022/12/10 15:26:24;;;;;;;20.27;16.70;;;;;;;5.67;56.49;97053.75;8379937;28;20236;-72
2022/12/10 15:30:38;;;;;;;22.13;17.17;;;;;;;5.63;56.25;97057.31;8379290;28;20226;-72
2022/12/10 15:34:43;;;;;;;23.23;19.87;;;;;;;5.65;56.38;97046.97;8380040;28;20233;-72
2022/12/10 15:38:48;;;;;;;16.77;14.43;;;;;;;5.62;55.92;97049.69;8379572;28;20302;-72
2022/12/10 15:42:51;;;;;;;13.50;12.10;;;;;;;5.42;55.94;97042.72;8379169;28;20229;-72
2022/12/10 15:46:59;;;;;;;11.63;10.17;;;;;;;5.49;55.15;97047.56;8378860;28;20229;-71
2022/12/10 15:51:03;;;;;;;12.10;10.67;;;;;;;5.45;55.67;97045.19;8378918;28;20233;-72
2022/12/10 15:55:08;;;;;;;11.63;9.73;;;;;;;5.54;55.22;97056.84;8378964;28;20249;-72
2022/12/10 15:59:10;;;;;;;11.20;9.90;;;;;;;5.52;55.22;97063.75;8379758;28;20372;-71
2022/12/10 16:03:15;;;;;;;10.93;9.80;;;;;;;5.37;55.31;97072.88;8378993;28;20243;-72
2022/12/10 16:07:19;;;;;;;11.47;10.00;;;;;;;5.52;55.49;97084.31;8379142;28;20531;-72
2022/12/10 16:11:23;;;;;;;11.17;9.90;;;;;;;5.32;56.28;97079.94;8378750;28;20220;-72
2022/12/10 16:15:27;;;;;;;12.97;11.40;;;;;;;5.47;55.82;97084.50;8373797;28;20270;-72
2022/12/10 16:19:30;;;;;;;15.10;12.57;;;;;;;5.28;56.20;97062.06;8390060;28;20275;-71
2022/12/10 16:23:33;;;;;;;37.63;30.77;;;;;;;5.31;55.71;97091.09;8379131;28;20231;-71
2022/12/10 16:27:39;;;;;;;166.93;129.48;;;;;;;5.59;55.32;97090.88;8377971;28;20637;-73
2022/12/10 16:31:42;;;;;;;29.13;22.97;;;;;;;5.39;55.76;97095.06;8378548;28;20222;-73
2022/12/10 16:35:45;;;;;;;27.33;24.30;;;;;;;5.42;55.28;97086.38;8378149;28;20237;-73
2022/12/10 16:39:47;;;;;;;184.40;148.97;;;;;;;5.37;55.44;97090.84;8378545;28;20225;-73
2022/12/10 16:43:58;;;;;;;43.77;37.83;;;;;;;5.44;55.43;97087.16;8378446;28;20578;-73
2022/12/10 16:48:01;;;;;;;30.87;23.47;;;;;;;5.46;55.49;97085.38;8378551;28;20283;-74
2022/12/10 16:52:05;;;;;;;24.33;18.17;;;;;;;5.48;55.98;97091.28;8378310;28;20236;-74
2022/12/10 16:56:10;;;;;;;38.87;29.90;;;;;;;5.27;56.32;97085.22;8377997;28;20240;-74
2022/12/10 17:00:16;;;;;;;17.37;14.67;;;;;;;5.43;55.79;97095.78;8378474;28;20391;-74
2022/12/10 17:04:19;;;;;;;12.27;10.90;;;;;;;5.10;56.30;97088.41;8382947;28;20223;-73
2022/12/10 17:08:23;;;;;;;12.53;10.77;;;;;;;5.07;56.66;97103.94;8384512;28;20229;-74
2022/12/10 17:12:29;;;;;;;19.93;15.93;;;;;;;5.23;56.34;97099.06;8385033;28;20524;-73
2022/12/10 17:16:33;;;;;;;17.67;14.60;;;;;;;4.73;57.06;97120.50;8384507;28;20275;-75
2022/12/10 17:20:37;;;;;;;13.03;11.60;;;;;;;5.19;56.37;97121.44;8384598;28;20513;-74
2022/12/10 17:24:40;;;;;;;17.83;14.53;;;;;;;5.28;56.08;97121.13;8384887;28;20228;-74
2022/12/10 17:28:43;;;;;;;14.83;12.70;;;;;;;5.28;56.10;97123.69;8384382;28;20439;-74
2022/12/10 17:32:47;;;;;;;13.90;11.97;;;;;;;5.22;55.73;97116.22;8384580;28;20264;-74
2022/12/10 17:36:51;;;;;;;13.00;11.13;;;;;;;5.16;55.64;97116.44;8384296;28;20418;-73
2022/12/10 17:40:54;;;;;;;12.17;10.77;;;;;;;5.17;55.19;97124.97;8382621;28;20233;-73
2022/12/10 17:44:57;;;;;;;12.20;10.73;;;;;;;5.16;55.15;97113.88;8383256;28;20454;-74
2022/12/10 17:49:06;;;;;;;13.30;11.43;;;;;;;5.27;55.14;97124.59;8383133;28;20236;-73
2022/12/10 17:53:10;;;;;;;13.47;10.73;;;;;;;4.86;55.20;97070.44;8382911;28;20250;-74
2022/12/10 17:57:18;;;;;;;12.87;10.53;;;;;;;4.79;55.02;97063.84;8381508;28;20244;-74
2022/12/10 18:01:21;;;;;;;17.40;14.07;;;;;;;5.16;55.47;97146.38;8382627;28;20225;-74
2022/12/10 18:05:25;;;;;;;20.43;15.67;;;;;;;5.23;54.90;97137.59;8382414;28;20233;-74
2022/12/10 18:09:28;;;;;;;18.37;14.17;;;;;;;5.31;54.85;97145.00;8382427;28;20505;-74
2022/12/10 18:13:31;;;;;;;16.17;13.37;;;;;;;5.21;55.09;97155.59;8382087;28;20224;-74
2022/12/10 18:17:34;;;;;;;15.93;13.40;;;;;;;5.18;54.92;97149.72;8381983;28;20430;-75
2022/12/10 18:21:38;;;;;;;16.20;13.10;;;;;;;5.17;55.16;97160.91;8382575;28;20514;-75
2022/12/10 18:25:44;;;;;;;15.53;12.50;;;;;;;5.27;54.50;97151.97;8382477;28;20549;-74
2022/12/10 18:29:47;;;;;;;16.83;13.70;;;;;;;5.11;55.29;97156.00;8382120;28;20255;-75
2022/12/10 18:33:52;;;;;;;14.70;12.43;;;;;;;4.89;55.03;97151.59;8381575;28;20235;-75
2022/12/10 18:37:57;;;;;;;15.50;12.10;;;;;;;4.98;55.42;97150.44;8380518;28;20504;-73
2022/12/10 18:42:01;;;;;;;23.03;15.60;;;;;;;5.07;55.05;97148.41;8380309;28;20232;-74
2022/12/10 18:46:04;;;;;;;18.43;13.53;;;;;;;4.99;54.79;97158.09;8381600;28;20240;-73
2022/12/10 18:50:17;;;;;;;14.17;12.17;;;;;;;5.19;54.16;97162.53;8381926;28;20217;-74
2022/12/10 18:54:22;;;;;;;15.33;12.67;;;;;;;5.00;54.51;97162.31;8380772;28;20243;-75
2022/12/10 18:58:25;;;;;;;14.27;12.17;;;;;;;5.05;54.86;97157.88;8381783;28;20221;-75
2022/12/10 19:02:28;;;;;;;15.03;12.73;;;;;;;5.04;54.08;97155.38;8381504;28;20234;-75
2022/12/10 19:06:33;;;;;;;15.30;13.03;;;;;;;4.98;54.31;97155.59;8380842;28;20233;-73
2022/12/10 19:10:37;;;;;;;15.97;13.47;;;;;;;5.05;54.24;97167.31;8380768;28;20235;-73
2022/12/10 19:14:39;;;;;;;15.50;13.00;;;;;;;5.12;54.37;97168.75;8380373;28;20302;-73
2022/12/10 19:18:44;;;;;;;16.03;14.03;;;;;;;5.14;54.39;97176.41;8380506;28;20225;-73